KHOT/HOT METAR and TAF weather

Enter ICAO airport designator
Station Type Date Time Source
KHOT METAR 2021/05/15 01:53 UTC NOAA

KHOT 150153Z AUTO 09004KT 10SM CLR 17/08 A3018 RMK AO2 SLP215 T01670078


Station Type Date Time Source
KHOT Decoded METAR 2021/05/15 01:53 UTC NOAA

HOT SPRINGS MEMORIAL FIELD, AR, United States (KHOT) 34-29N 093-06W 162M
May 14, 2021 - 09:53 PM EDT / 2021.05.15 0153 UTC
Wind: from the E (090 degrees) at 5 MPH (4 KT):0
Visibility: 10 mile(s):0
Sky conditions: clear
Temperature: 62.1 F (16.7 C)
Dew Point: 46.0 F (7.8 C)
Relative Humidity: 55%
Pressure (altimeter): 30.18 in. Hg (1022 hPa)
ob: KHOT 150153Z AUTO 09004KT 10SM CLR 17/08 A3018 RMK AO2 SLP215 T01670078
cycle: 2

Station Type Date Time Source
KHOT TAF 2021/05/14 18:36 UTC NOAA

TAF KHOT 141733Z 1418/1518 14007KT P6SM SKC
FM150100 11003KT P6SM SCT250
FM151500 17008KT P6SM SCT120

Example: see airport list